createdAt,value
2019-01-27T00:02:19.261Z,93074.48
2019-01-27T00:04:49.997Z,93068.94
2019-01-27T00:07:18.631Z,93066.05
2019-01-27T00:09:47.317Z,93064.90
2019-01-27T00:12:15.945Z,93058.14
2019-01-27T00:14:44.628Z,93045.20
2019-01-27T00:17:14.390Z,93050.48
2019-01-27T00:19:43.036Z,93044.36
2019-01-27T00:22:11.658Z,93036.38
2019-01-27T00:24:40.272Z,93033.63
2019-01-27T00:27:08.949Z,93026.16
2019-01-27T00:29:37.629Z,93025.95
2019-01-27T00:32:06.235Z,93018.36
2019-01-27T00:34:34.911Z,93015.83
2019-01-27T00:37:03.553Z,93013.41
2019-01-27T00:39:32.229Z,93014.89
2019-01-27T00:42:02.061Z,93009.81
2019-01-27T00:44:30.699Z,93006.09
2019-01-27T00:46:59.318Z,93006.77
2019-01-27T00:49:28.001Z,93009.44
2019-01-27T00:51:56.632Z,93004.57
2019-01-27T00:54:25.342Z,93003.79
2019-01-27T00:56:53.994Z,93003.75
2019-01-27T00:59:22.625Z,92999.96
2019-01-27T01:01:51.255Z,92997.97
2019-01-27T01:04:21.513Z,92998.81
2019-01-27T01:06:50.171Z,92995.72
2019-01-27T01:09:18.833Z,92987.81
2019-01-27T01:11:47.556Z,92991.66
2019-01-27T01:14:16.248Z,92989.89
2019-01-27T01:16:44.869Z,92980.52
2019-01-27T01:19:13.552Z,92972.27
2019-01-27T01:21:42.231Z,92972.27
2019-01-27T01:24:12.172Z,92970.69
2019-01-27T01:26:40.803Z,92964.19
2019-01-27T01:29:09.519Z,92965.52
2019-01-27T01:31:38.145Z,92959.76
2019-01-27T01:34:12.880Z,92962.25
2019-01-27T01:36:41.573Z,92954.96
2019-01-27T01:39:10.252Z,92945.78
2019-01-27T01:41:38.865Z,92939.84
2019-01-27T01:44:10.417Z,92931.04
2019-01-27T01:46:39.040Z,92924.70
2019-01-27T01:49:07.733Z,92915.86
2019-01-27T01:51:36.350Z,92916.65
2019-01-27T01:54:05.482Z,92902.62
2019-01-27T01:56:34.197Z,92901.09
2019-01-27T01:59:02.899Z,92895.75
2019-01-27T02:01:31.525Z,92892.34
2019-01-27T02:04:03.037Z,92879.98
2019-01-27T02:06:31.716Z,92873.66
2019-01-27T02:09:00.420Z,92863.82
2019-01-27T02:11:29.109Z,92862.91
2019-01-27T02:13:57.724Z,92860.67
2019-01-27T02:16:26.415Z,92855.67
2019-01-27T02:18:55.103Z,92854.45
2019-01-27T02:21:23.725Z,92846.50
2019-01-27T02:23:53.829Z,92844.50
2019-01-27T02:26:22.437Z,92833.45
2019-01-27T02:28:51.127Z,92832.05
2019-01-27T02:31:22.792Z,92817.66
2019-01-27T02:33:51.490Z,92802.81
2019-01-27T02:36:20.178Z,92815.29
2019-01-27T02:38:48.872Z,92803.53
2019-01-27T02:41:26.465Z,92795.44
2019-01-27T02:43:55.211Z,92789.77
2019-01-27T02:46:23.891Z,92781.63
2019-01-27T02:48:52.586Z,92770.36
2019-01-27T02:51:21.206Z,92763.78
2019-01-27T02:53:49.898Z,92757.89
2019-01-27T02:56:18.596Z,92755.34
2019-01-27T02:58:49.241Z,92751.23
2019-01-27T03:01:17.574Z,92743.95
2019-01-27T03:03:46.253Z,92740.11
2019-01-27T03:06:16.505Z,92738.20
2019-01-27T03:08:46.801Z,92733.66
2019-01-27T03:11:15.440Z,92726.50
2019-01-27T03:13:45.624Z,92721.45
2019-01-27T03:16:15.004Z,92722.27
2019-01-27T03:18:43.646Z,92727.77
2019-01-27T03:21:12.324Z,92723.52
2019-01-27T03:23:41.055Z,92726.06
2019-01-27T03:26:09.747Z,92727.52
2019-01-27T03:28:38.386Z,92718.20
2019-01-27T03:31:07.103Z,92711.59
2019-01-27T03:33:35.823Z,92708.37
2019-01-27T03:36:04.557Z,92708.55
2019-01-27T03:38:34.744Z,92709.04
2019-01-27T03:41:03.422Z,92708.30
2019-01-27T03:43:32.098Z,92703.20
2019-01-27T03:46:00.789Z,92700.22
2019-01-27T03:48:32.177Z,92695.99
2019-01-27T03:51:00.863Z,92695.25
2019-01-27T03:53:29.549Z,92684.03
2019-01-27T03:55:58.177Z,92681.34
2019-01-27T03:58:26.851Z,92675.69
2019-01-27T04:00:55.531Z,92670.22
2019-01-27T04:03:24.223Z,92666.97
2019-01-27T04:05:52.892Z,92663.84
2019-01-27T04:08:21.578Z,92655.73
2019-01-27T04:10:50.198Z,92646.50
2019-01-27T04:13:18.871Z,92633.75
2019-01-27T04:15:49.464Z,92631.13
2019-01-27T04:18:18.153Z,92622.69
2019-01-27T04:20:46.789Z,92623.17
2019-01-27T04:23:15.603Z,92616.65
2019-01-27T04:25:44.268Z,92615.75
2019-01-27T04:28:12.932Z,92620.09
2019-01-27T04:30:41.637Z,92617.27
2019-01-27T04:33:10.251Z,92606.59
2019-01-27T04:35:38.943Z,92603.49
2019-01-27T04:38:07.558Z,92601.98
2019-01-27T04:40:36.263Z,92595.72
2019-01-27T04:43:05.011Z,92595.98
2019-01-27T04:45:37.803Z,92592.47
2019-01-27T04:48:07.106Z,92588.83
2019-01-27T04:50:35.741Z,92588.74
2019-01-27T04:53:04.944Z,92581.72
2019-01-27T04:55:36.534Z,92576.80
2019-01-27T04:58:06.051Z,92581.97
2019-01-27T05:00:34.640Z,92579.77
2019-01-27T05:03:17.707Z,92576.47
2019-01-27T05:05:46.403Z,92573.88
2019-01-27T05:08:15.058Z,92582.67
2019-01-27T05:10:43.755Z,92576.43
2019-01-27T05:13:12.363Z,92568.36
2019-01-27T05:15:41.045Z,92566.18
2019-01-27T05:18:10.654Z,92560.31
2019-01-27T05:20:39.333Z,92559.15
2019-01-27T05:23:07.951Z,92561.98
2019-01-27T05:25:36.691Z,92554.05
2019-01-27T05:28:05.449Z,92553.25
2019-01-27T05:30:34.167Z,92552.88
2019-01-27T05:33:02.899Z,92548.32
2019-01-27T05:35:31.710Z,92540.19
2019-01-27T05:38:00.363Z,92535.47
2019-01-27T05:40:28.983Z,92538.28
2019-01-27T05:42:57.670Z,92543.17
2019-01-27T05:45:26.284Z,92536.09
2019-01-27T05:47:54.962Z,92533.09
2019-01-27T05:50:23.582Z,92530.28
2019-01-27T05:52:52.274Z,92528.82
2019-01-27T05:55:21.400Z,92529.31
2019-01-27T05:57:50.022Z,92530.28
2019-01-27T06:00:33.633Z,92527.50
2019-01-27T06:03:02.384Z,92523.57
2019-01-27T06:05:31.022Z,92522.41
2019-01-27T06:07:59.706Z,92522.81
2019-01-27T06:10:28.409Z,92523.38
2019-01-27T06:12:57.101Z,92519.80
2019-01-27T06:15:25.741Z,92508.92
2019-01-27T06:17:54.461Z,92510.34
2019-01-27T06:20:23.079Z,92508.97
2019-01-27T06:22:51.763Z,92507.28
2019-01-27T06:25:20.865Z,92504.84
2019-01-27T06:27:49.485Z,92496.41
2019-01-27T06:30:23.744Z,92488.50
2019-01-27T06:32:53.982Z,92486.83
2019-01-27T06:35:22.656Z,92481.42
2019-01-27T06:37:51.271Z,92479.03
2019-01-27T06:40:19.965Z,92472.09
2019-01-27T06:42:48.607Z,92469.66
2019-01-27T06:45:17.224Z,92464.91
2019-01-27T06:47:45.936Z,92461.72
2019-01-27T06:50:15.065Z,92454.64
2019-01-27T06:52:43.686Z,92455.05
2019-01-27T06:55:15.376Z,92449.16
2019-01-27T06:57:44.010Z,92445.23
2019-01-27T07:00:41.242Z,92439.16
2019-01-27T07:03:23.278Z,92437.21
2019-01-27T07:05:59.572Z,92434.39
2019-01-27T07:08:38.795Z,92439.41
2019-01-27T07:11:11.795Z,92427.17
2019-01-27T07:13:42.024Z,92418.26
2019-01-27T07:16:12.280Z,92414.14
2019-01-27T07:18:57.722Z,92414.12
2019-01-27T07:21:30.933Z,92407.95
2019-01-27T07:24:01.125Z,92404.42
2019-01-27T07:26:49.749Z,92400.72
2019-01-27T07:29:26.001Z,92390.03
2019-01-27T07:32:05.328Z,92388.36
2019-01-27T07:34:41.592Z,92392.48
2019-01-27T07:37:28.077Z,92386.05
2019-01-27T07:40:07.219Z,92393.36
2019-01-27T07:42:37.691Z,92394.55
2019-01-27T07:45:11.261Z,92398.19
2019-01-27T07:47:41.469Z,92400.14
2019-01-27T07:50:16.867Z,92402.87
2019-01-27T07:52:52.836Z,92393.58
2019-01-27T07:55:41.479Z,92385.14
2019-01-27T07:58:11.796Z,92389.36
2019-01-27T08:00:42.107Z,92396.41
2019-01-27T08:03:28.840Z,92402.00
2019-01-27T08:06:01.998Z,92392.20
2019-01-27T08:08:32.255Z,92395.94
2019-01-27T08:11:18.793Z,92401.31
2019-01-27T08:13:51.909Z,92401.50
2019-01-27T08:16:24.233Z,92388.06
2019-01-27T08:19:03.465Z,92386.89
2019-01-27T08:21:40.605Z,92396.62
2019-01-27T08:24:21.283Z,92389.63
2019-01-27T08:27:00.368Z,92385.98
2019-01-27T08:29:30.628Z,92391.14
2019-01-27T08:32:06.876Z,92392.42
2019-01-27T08:34:37.085Z,92389.47
2019-01-27T08:37:16.179Z,92403.86
2019-01-27T08:39:46.410Z,92411.22
2019-01-27T08:42:16.661Z,92410.80
2019-01-27T08:44:47.002Z,92418.53
2019-01-27T08:47:18.612Z,92425.73
2019-01-27T08:49:47.237Z,92415.28
2019-01-27T08:52:15.940Z,92419.89
2019-01-27T08:54:44.606Z,92413.61
2019-01-27T08:57:16.369Z,92408.58
2019-01-27T08:59:47.250Z,92414.53
2019-01-27T09:02:33.830Z,92405.99
2019-01-27T09:05:04.171Z,92405.12
2019-01-27T09:07:49.120Z,92406.33
2019-01-27T09:10:19.332Z,92403.72
2019-01-27T09:13:01.939Z,92398.42
2019-01-27T09:15:50.299Z,92401.19
2019-01-27T09:18:35.876Z,92409.16
2019-01-27T09:21:22.533Z,92400.87
2019-01-27T09:24:03.100Z,92399.64
2019-01-27T09:26:33.464Z,92399.12
2019-01-27T09:29:03.740Z,92394.08
2019-01-27T09:31:45.909Z,92403.75
2019-01-27T09:34:28.362Z,92405.02
2019-01-27T09:37:14.935Z,92398.99
2019-01-27T09:39:47.978Z,92400.16
2019-01-27T09:42:30.000Z,92398.95
2019-01-27T09:45:02.958Z,92408.16
2019-01-27T09:47:35.964Z,92405.81
2019-01-27T09:50:12.631Z,92401.20
2019-01-27T09:52:51.917Z,92402.73
2019-01-27T09:55:22.191Z,92409.17
2019-01-27T09:58:01.372Z,92400.34
2019-01-27T10:00:37.947Z,92393.70
2019-01-27T10:03:10.915Z,92401.14
2019-01-27T10:05:41.194Z,92405.23
2019-01-27T10:08:28.109Z,92400.39
2019-01-27T10:11:05.722Z,92397.06
2019-01-27T10:13:54.036Z,92401.48
2019-01-27T10:16:24.250Z,92392.68
2019-01-27T10:18:54.611Z,92382.28
2019-01-27T10:21:24.829Z,92374.38
2019-01-27T10:24:01.180Z,92369.13
2019-01-27T10:26:34.455Z,92361.98
2019-01-27T10:29:06.293Z,92364.48
2019-01-27T10:31:39.230Z,92361.27
2019-01-27T10:34:19.582Z,92355.22
2019-01-27T10:36:59.537Z,92354.03
2019-01-27T10:39:29.755Z,92350.93
2019-01-27T10:42:00.020Z,92342.26
2019-01-27T10:44:46.603Z,92347.09
2019-01-27T10:47:18.706Z,92335.52
2019-01-27T10:49:51.958Z,92342.70
2019-01-27T10:52:26.296Z,92340.64
2019-01-27T10:55:05.359Z,92343.70
2019-01-27T10:57:40.493Z,92345.48
2019-01-27T11:00:29.961Z,92333.84
2019-01-27T11:03:01.710Z,92328.47
2019-01-27T11:05:42.064Z,92324.64
2019-01-27T11:08:12.424Z,92317.67
2019-01-27T11:10:54.649Z,92315.19
2019-01-27T11:13:30.977Z,92303.14
2019-01-27T11:16:17.293Z,92286.33
2019-01-27T11:18:53.687Z,92283.30
2019-01-27T11:21:43.397Z,92270.87
2019-01-27T11:24:16.491Z,92268.25
2019-01-27T11:27:01.667Z,92265.30
2019-01-27T11:29:31.907Z,92257.81
2019-01-27T11:32:12.067Z,92253.30
2019-01-27T11:34:48.467Z,92258.72
2019-01-27T11:37:20.575Z,92250.91
2019-01-27T11:40:07.326Z,92245.27
2019-01-27T11:42:46.369Z,92234.48
2019-01-27T11:45:32.019Z,92249.30
2019-01-27T11:48:11.173Z,92233.86
2019-01-27T11:50:41.704Z,92224.73
2019-01-27T11:53:10.393Z,92229.80
2019-01-27T11:55:39.171Z,92226.93
2019-01-27T11:58:07.873Z,92218.38
2019-01-27T12:00:41.059Z,92207.96
2019-01-27T12:03:11.513Z,92203.48
2019-01-27T12:05:40.274Z,92205.55
2019-01-27T12:08:08.993Z,92203.44
2019-01-27T12:10:39.125Z,92215.87
2019-01-27T12:13:07.972Z,92210.89
2019-01-27T12:15:41.480Z,92212.48
2019-01-27T12:18:10.395Z,92218.36
2019-01-27T12:20:49.914Z,92215.90
2019-01-27T12:23:19.827Z,92219.72
2019-01-27T12:25:51.325Z,92206.55
2019-01-27T12:28:19.955Z,92184.59
2019-01-27T12:30:48.726Z,92184.77
2019-01-27T12:33:17.541Z,92181.41
2019-01-27T12:35:50.725Z,92185.79
2019-01-27T12:38:19.415Z,92175.63
2019-01-27T12:40:48.300Z,92166.75
2019-01-27T12:43:18.593Z,92166.31
2019-01-27T12:45:50.184Z,92159.70
2019-01-27T12:48:20.024Z,92161.62
2019-01-27T12:50:48.745Z,92145.57
2019-01-27T12:53:17.427Z,92143.23
2019-01-27T12:55:47.125Z,92145.85
2019-01-27T12:58:15.857Z,92144.88
2019-01-27T13:00:47.601Z,92145.72
2019-01-27T13:03:17.574Z,92131.42
2019-01-27T13:05:47.766Z,92124.74
2019-01-27T13:08:18.095Z,92126.11
2019-01-27T13:10:46.699Z,92120.12
2019-01-27T13:13:15.386Z,92115.06
2019-01-27T13:15:46.511Z,92111.13
2019-01-27T13:18:15.155Z,92109.88
2019-01-27T13:20:45.035Z,92108.25
2019-01-27T13:23:13.761Z,92112.35
2019-01-27T13:25:42.454Z,92117.31
2019-01-27T13:28:15.512Z,92116.28
2019-01-27T13:30:46.236Z,92122.94
2019-01-27T13:33:14.610Z,92112.80
2019-01-27T13:35:43.352Z,92103.38
2019-01-27T13:38:14.868Z,92106.06
2019-01-27T13:40:43.720Z,92102.17
2019-01-27T13:43:12.385Z,92096.87
2019-01-27T13:45:41.092Z,92093.64
2019-01-27T13:48:09.776Z,92086.25
2019-01-27T13:50:38.395Z,92084.97
2019-01-27T13:53:07.113Z,92096.98
2019-01-27T13:55:37.201Z,92094.31
2019-01-27T13:58:06.385Z,92099.06
2019-01-27T14:00:42.317Z,92104.52
2019-01-27T14:03:12.637Z,92112.73
2019-01-27T14:05:41.335Z,92107.85
2019-01-27T14:08:10.224Z,92109.00
2019-01-27T14:10:39.205Z,92103.78
2019-01-27T14:13:07.905Z,92094.97
2019-01-27T14:15:39.039Z,92095.52
2019-01-27T14:18:08.661Z,92098.14
2019-01-27T14:20:37.960Z,92097.70
2019-01-27T14:23:06.837Z,92089.22
2019-01-27T14:25:35.583Z,92087.44
2019-01-27T14:28:04.786Z,92083.42
2019-01-27T14:30:38.700Z,92078.84
2019-01-27T14:33:08.091Z,92076.97
2019-01-27T14:35:39.750Z,92070.28
2019-01-27T14:38:08.373Z,92068.55
2019-01-27T14:40:40.067Z,92076.87
2019-01-27T14:43:10.318Z,92082.27
2019-01-27T14:45:38.983Z,92077.53
2019-01-27T14:48:11.351Z,92079.86
2019-01-27T14:50:44.576Z,92081.81
2019-01-27T14:53:14.939Z,92074.56
2019-01-27T14:55:45.147Z,92075.69
2019-01-27T14:58:13.927Z,92076.73
2019-01-27T15:00:44.454Z,92075.58
2019-01-27T15:03:14.068Z,92080.25
2019-01-27T15:05:42.818Z,92080.75
2019-01-27T15:08:13.070Z,92079.66
2019-01-27T15:10:41.816Z,92078.62
2019-01-27T15:13:10.472Z,92083.19
2019-01-27T15:15:39.155Z,92079.00
2019-01-27T15:18:14.208Z,92084.99
2019-01-27T15:20:45.655Z,92082.96
2019-01-27T15:23:15.873Z,92081.72
2019-01-27T15:25:44.588Z,92083.69
2019-01-27T15:28:15.891Z,92074.73
2019-01-27T15:30:44.634Z,92073.81
2019-01-27T15:33:14.521Z,92079.13
2019-01-27T15:35:45.403Z,92072.81
2019-01-27T15:38:14.097Z,92071.90
2019-01-27T15:40:42.758Z,92076.52
2019-01-27T15:43:11.480Z,92071.47
2019-01-27T15:45:40.206Z,92071.03
2019-01-27T15:48:08.912Z,92070.84
2019-01-27T15:50:37.685Z,92069.27
2019-01-27T15:53:08.335Z,92066.00
2019-01-27T15:55:39.135Z,92069.88
2019-01-27T15:58:08.133Z,92066.26
2019-01-27T16:00:38.209Z,92061.42
2019-01-27T16:03:09.825Z,92072.73
2019-01-27T16:05:38.455Z,92065.95
2019-01-27T16:08:07.273Z,92064.21
2019-01-27T16:10:35.975Z,92060.27
2019-01-27T16:13:06.986Z,92053.45
2019-01-27T16:15:36.787Z,92054.72
2019-01-27T16:18:07.085Z,92060.34
2019-01-27T16:20:35.816Z,92060.34
2019-01-27T16:23:06.115Z,92055.30
2019-01-27T16:25:34.912Z,92058.03
2019-01-27T16:28:03.568Z,92055.33
2019-01-27T16:30:44.729Z,92056.11
2019-01-27T16:33:21.948Z,92055.19
2019-01-27T16:35:53.420Z,92042.69
2019-01-27T16:38:22.359Z,92045.67
2019-01-27T16:40:53.886Z,92045.53
2019-01-27T16:43:22.527Z,92046.38
2019-01-27T16:45:52.684Z,92047.38
2019-01-27T16:48:25.536Z,92046.73
2019-01-27T16:50:54.245Z,92051.35
2019-01-27T16:53:22.927Z,92058.96
2019-01-27T16:55:51.592Z,92060.55
2019-01-27T16:58:20.275Z,92060.63
2019-01-27T17:00:49.118Z,92061.45
2019-01-27T17:03:17.769Z,92063.11
2019-01-27T17:05:46.561Z,92061.54
2019-01-27T17:08:15.266Z,92055.22
2019-01-27T17:10:43.995Z,92054.37
2019-01-27T17:13:15.591Z,92057.75
2019-01-27T17:15:46.224Z,92048.08
2019-01-27T17:18:15.032Z,92054.51
2019-01-27T17:20:43.859Z,92058.98
2019-01-27T17:23:12.669Z,92055.53
2019-01-27T17:25:41.458Z,92054.16
2019-01-27T17:28:10.278Z,92053.66
2019-01-27T17:30:40.214Z,92049.33
2019-01-27T17:33:10.307Z,92048.26
2019-01-27T17:35:39.484Z,92037.16
2019-01-27T17:38:09.637Z,92036.57
2019-01-27T17:40:38.517Z,92036.89
2019-01-27T17:43:07.420Z,92033.12
2019-01-27T17:45:38.201Z,92041.75
2019-01-27T17:48:07.016Z,92046.28
2019-01-27T17:50:35.922Z,92047.72
2019-01-27T17:53:04.768Z,92051.42
2019-01-27T17:55:43.939Z,92046.70
2019-01-27T17:58:34.936Z,92044.20
2019-01-27T18:01:10.341Z,92041.01
2019-01-27T18:03:53.892Z,92040.75
2019-01-27T18:06:33.393Z,92040.66
2019-01-27T18:09:21.435Z,92041.89
2019-01-27T18:11:51.897Z,92035.44
2019-01-27T18:14:22.157Z,92019.02
2019-01-27T18:16:50.828Z,92011.44
2019-01-27T18:19:22.656Z,92016.39
2019-01-27T18:21:51.447Z,92024.52
2019-01-27T18:24:22.225Z,92022.52
2019-01-27T18:26:50.669Z,92018.63
2019-01-27T18:29:23.575Z,92020.61
2019-01-27T18:31:52.201Z,92021.20
2019-01-27T18:34:20.951Z,92017.31
2019-01-27T18:36:52.647Z,92014.84
2019-01-27T18:39:23.431Z,92024.48
2019-01-27T18:41:53.701Z,92018.34
2019-01-27T18:44:32.954Z,92011.52
2019-01-27T18:47:01.718Z,91996.49
2019-01-27T18:49:34.394Z,91992.41
2019-01-27T18:52:01.801Z,91985.98
2019-01-27T18:54:38.370Z,91980.39
2019-01-27T18:57:16.060Z,91974.73
2019-01-27T18:59:52.155Z,91964.66
2019-01-27T19:02:27.283Z,91967.06
2019-01-27T19:05:00.782Z,91967.13
2019-01-27T19:07:31.327Z,91960.69
2019-01-27T19:10:04.275Z,91952.80
2019-01-27T19:12:34.795Z,91944.37
2019-01-27T19:15:08.149Z,91941.95
2019-01-27T19:17:38.486Z,91953.04
2019-01-27T19:20:11.949Z,91948.48
2019-01-27T19:22:57.286Z,91948.62
2019-01-27T19:25:39.656Z,91937.23
2019-01-27T19:28:16.868Z,91928.03
2019-01-27T19:30:47.200Z,91933.53
2019-01-27T19:33:20.285Z,91927.77
2019-01-27T19:35:58.110Z,91924.28
2019-01-27T19:38:34.523Z,91920.80
2019-01-27T19:41:04.841Z,91907.19
2019-01-27T19:43:35.263Z,91935.00
2019-01-27T19:46:19.019Z,91939.36
2019-01-27T19:48:55.252Z,91934.17
2019-01-27T19:51:34.583Z,91934.09
2019-01-27T19:54:04.854Z,91940.71
2019-01-27T19:56:38.323Z,91946.81
2019-01-27T19:59:15.113Z,91937.63
2019-01-27T20:01:45.439Z,91944.14
2019-01-27T20:04:33.900Z,91932.66
2019-01-27T20:07:10.098Z,91941.67
2019-01-27T20:09:40.370Z,91947.81
2019-01-27T20:12:14.198Z,91949.41
2019-01-27T20:14:45.629Z,91948.61
2019-01-27T20:17:28.205Z,91943.39
2019-01-27T20:20:16.829Z,91941.41
2019-01-27T20:22:49.844Z,91935.45
2019-01-27T20:25:32.230Z,91939.16
2019-01-27T20:28:05.690Z,91933.22
2019-01-27T20:30:38.797Z,91929.81
2019-01-27T20:33:16.082Z,91935.94
2019-01-27T20:36:07.125Z,91927.38
2019-01-27T20:38:54.048Z,91926.64
2019-01-27T20:41:34.670Z,91924.22
2019-01-27T20:44:11.070Z,91919.56
2019-01-27T20:46:41.282Z,91913.11
2019-01-27T20:49:26.596Z,91911.34
2019-01-27T20:52:08.918Z,91917.88
2019-01-27T20:54:42.151Z,91911.50
2019-01-27T20:57:12.371Z,91905.82
2019-01-27T20:59:45.673Z,91905.82
2019-01-27T21:02:15.884Z,91908.97
2019-01-27T21:04:46.247Z,91907.70
2019-01-27T21:07:21.913Z,91902.38
2019-01-27T21:09:52.181Z,91893.65
2019-01-27T21:12:22.399Z,91891.37
2019-01-27T21:14:55.854Z,91890.75
2019-01-27T21:17:41.384Z,91887.36
2019-01-27T21:20:11.980Z,91896.70
2019-01-27T21:22:40.601Z,91899.82
2019-01-27T21:25:12.354Z,91901.17
2019-01-27T21:27:41.052Z,91911.59
2019-01-27T21:30:13.062Z,91908.40
2019-01-27T21:32:41.703Z,91900.18
2019-01-27T21:35:11.233Z,91902.25
2019-01-27T21:37:41.405Z,91893.88
2019-01-27T21:40:13.127Z,91883.03
2019-01-27T21:42:47.202Z,91881.59
2019-01-27T21:45:14.737Z,91875.56
2019-01-27T21:47:43.419Z,91872.89
2019-01-27T21:50:15.079Z,91862.12
2019-01-27T21:52:43.817Z,91861.31
2019-01-27T21:55:12.462Z,91865.78
2019-01-27T21:57:41.156Z,91862.66
2019-01-27T22:00:13.137Z,91861.45
2019-01-27T22:02:41.777Z,91865.73
2019-01-27T22:05:10.494Z,91857.05
2019-01-27T22:07:44.491Z,91843.11
2019-01-27T22:10:17.320Z,91848.58
2019-01-27T22:12:46.053Z,91855.00
2019-01-27T22:15:15.374Z,91854.44
2019-01-27T22:17:44.133Z,91858.56
2019-01-27T22:20:14.758Z,91855.36
2019-01-27T22:22:43.464Z,91845.51
2019-01-27T22:25:13.887Z,91847.14
2019-01-27T22:27:42.578Z,91853.73
2019-01-27T22:30:19.216Z,91852.39
2019-01-27T22:32:47.904Z,91854.56
2019-01-27T22:35:16.518Z,91859.33
2019-01-27T22:37:45.128Z,91866.16
2019-01-27T22:40:15.642Z,91873.50
2019-01-27T22:42:44.330Z,91872.31
2019-01-27T22:45:15.228Z,91871.58
2019-01-27T22:47:43.866Z,91874.13
2019-01-27T22:50:15.167Z,91883.92
2019-01-27T22:52:43.789Z,91883.72
2019-01-27T22:55:12.916Z,91884.92
2019-01-27T22:57:41.601Z,91886.84
2019-01-27T23:00:23.567Z,91878.84
2019-01-27T23:02:52.233Z,91875.43
2019-01-27T23:05:20.863Z,91873.87
2019-01-27T23:07:49.565Z,91872.09
2019-01-27T23:10:18.250Z,91871.89
2019-01-27T23:12:46.909Z,91874.22
2019-01-27T23:15:18.390Z,91876.86
2019-01-27T23:17:47.018Z,91879.75
2019-01-27T23:20:15.734Z,91885.87
2019-01-27T23:22:44.389Z,91885.66
2019-01-27T23:25:13.047Z,91876.44
2019-01-27T23:27:41.706Z,91873.72
2019-01-27T23:30:11.093Z,91872.73
2019-01-27T23:32:39.791Z,91870.75
2019-01-27T23:35:08.872Z,91876.71
2019-01-27T23:37:37.496Z,91882.10
2019-01-27T23:40:08.076Z,91879.34
2019-01-27T23:42:36.725Z,91882.17
2019-01-27T23:45:11.200Z,91882.25
2019-01-27T23:47:39.878Z,91885.09
2019-01-27T23:50:09.853Z,91882.53
2019-01-27T23:52:38.522Z,91890.77
2019-01-27T23:55:09.495Z,91897.97
2019-01-27T23:57:38.141Z,91900.98
